createdAt,value
2022-10-06T00:00:10.225Z,2.38
2022-10-06T00:04:13.345Z,3.25
2022-10-06T00:08:16.699Z,2.30
2022-10-06T00:12:19.409Z,2.65
2022-10-06T00:16:22.525Z,2.88
2022-10-06T00:20:29.097Z,2.58
2022-10-06T00:24:35.171Z,2.47
2022-10-06T00:28:38.057Z,2.90
2022-10-06T00:32:41.180Z,3.38
2022-10-06T00:36:44.398Z,2.70
2022-10-06T00:40:51.110Z,2.83
2022-10-06T00:49:17.499Z,3.47
2022-10-06T00:53:21.866Z,3.22
2022-10-06T00:57:27.632Z,2.80
2022-10-06T01:01:32.421Z,3.60
2022-10-06T01:05:41.531Z,3.28
2022-10-06T01:09:45.573Z,3.03
2022-10-06T01:13:49.556Z,2.60
2022-10-06T01:18:15.039Z,2.90
2022-10-06T01:22:28.544Z,3.55
2022-10-06T01:26:34.157Z,3.00
2022-10-06T01:30:43.596Z,3.38
2022-10-06T01:34:46.442Z,3.10
2022-10-06T01:38:49.197Z,3.00
2022-10-06T01:42:52.074Z,3.30
2022-10-06T01:46:54.921Z,3.40
2022-10-06T01:50:57.890Z,3.90
2022-10-06T01:55:01.059Z,3.22
2022-10-06T01:59:04.050Z,2.92
2022-10-06T02:03:08.001Z,3.20
2022-10-06T02:07:10.758Z,3.78
2022-10-06T02:11:20.760Z,3.70
2022-10-06T02:15:27.064Z,3.88
2022-10-06T02:19:30.654Z,4.93
2022-10-06T02:23:34.740Z,4.65
2022-10-06T02:27:39.207Z,4.47
2022-10-06T02:31:43.405Z,3.88
2022-10-06T02:35:47.213Z,3.70
2022-10-06T02:39:50.259Z,3.30
2022-10-06T02:43:55.341Z,3.22
2022-10-06T02:47:58.843Z,3.08
2022-10-06T02:52:01.706Z,3.28
2022-10-06T02:56:08.685Z,3.60
2022-10-06T03:00:12.208Z,4.47
2022-10-06T03:04:15.271Z,3.30
2022-10-06T03:08:18.700Z,2.75
2022-10-06T03:12:22.440Z,2.58
2022-10-06T03:16:32.142Z,2.65
2022-10-06T03:20:36.015Z,3.10
2022-10-06T03:24:39.684Z,3.25
2022-10-06T03:28:42.700Z,2.60
2022-10-06T03:32:45.677Z,3.83
2022-10-06T03:36:49.184Z,3.15
2022-10-06T03:41:09.575Z,3.38
2022-10-06T03:45:12.975Z,3.08
2022-10-06T03:49:15.937Z,2.80
2022-10-06T03:53:18.761Z,3.95
2022-10-06T03:57:21.958Z,4.15
2022-10-06T04:01:31.657Z,3.35
2022-10-06T04:05:37.860Z,3.50
2022-10-06T04:09:40.973Z,2.97
2022-10-06T04:13:45.799Z,2.67
2022-10-06T04:17:48.778Z,3.17
2022-10-06T04:21:52.284Z,3.95
2022-10-06T04:26:05.300Z,4.63
2022-10-06T04:30:08.914Z,6.63
2022-10-06T04:34:13.571Z,5.57
2022-10-06T04:38:17.677Z,4.05
2022-10-06T04:42:20.910Z,4.20
2022-10-06T04:46:42.040Z,3.70
2022-10-06T04:50:57.633Z,3.08
2022-10-06T04:55:01.888Z,2.57
2022-10-06T04:59:04.974Z,3.42
2022-10-06T05:03:13.375Z,3.50
2022-10-06T05:07:23.217Z,3.80
2022-10-06T05:11:28.237Z,5.32
2022-10-06T05:15:31.855Z,4.10
2022-10-06T05:19:36.149Z,4.00
2022-10-06T05:23:40.854Z,6.50
2022-10-06T05:27:43.845Z,5.22
2022-10-06T05:31:48.581Z,4.65
2022-10-06T05:35:56.953Z,8.25
2022-10-06T05:39:59.990Z,8.05
2022-10-06T05:44:03.295Z,6.03
2022-10-06T05:48:07.856Z,5.45
2022-10-06T05:52:10.799Z,4.72
2022-10-06T05:56:19.485Z,5.68
2022-10-06T06:00:22.394Z,4.90
2022-10-06T06:04:25.419Z,4.13
2022-10-06T06:08:32.174Z,4.47
2022-10-06T06:12:35.857Z,3.42
2022-10-06T06:17:05.577Z,4.82
2022-10-06T06:21:10.416Z,4.82
2022-10-06T06:25:13.656Z,4.90
2022-10-06T06:29:18.882Z,5.68
2022-10-06T06:33:24.315Z,6.40
2022-10-06T06:37:27.680Z,6.45
2022-10-06T06:41:33.976Z,8.30
2022-10-06T06:45:42.450Z,10.00
2022-10-06T06:50:10.392Z,8.70
2022-10-06T06:54:15.879Z,7.30
2022-10-06T06:58:20.987Z,5.60
2022-10-06T07:02:26.579Z,7.28
2022-10-06T07:06:31.191Z,8.20
2022-10-06T07:15:03.833Z,7.85
2022-10-06T07:19:31.454Z,7.18
2022-10-06T07:23:52.675Z,7.47
2022-10-06T07:27:56.932Z,7.95
2022-10-06T07:32:07.331Z,7.90
2022-10-06T07:36:11.242Z,7.75
2022-10-06T07:40:15.852Z,8.77
2022-10-06T07:44:18.757Z,8.23
2022-10-06T07:48:23.726Z,7.47
2022-10-06T07:52:29.934Z,7.68
2022-10-06T07:56:34.197Z,7.97
2022-10-06T08:00:37.313Z,7.70
2022-10-06T08:04:40.999Z,7.78
2022-10-06T08:08:47.115Z,6.57
2022-10-06T08:12:53.227Z,7.35
2022-10-06T08:16:56.053Z,7.22
2022-10-06T08:21:29.811Z,8.15
2022-10-06T08:25:33.502Z,7.40
2022-10-06T08:29:36.933Z,7.38
2022-10-06T08:33:42.444Z,6.03
2022-10-06T08:37:48.219Z,5.90
2022-10-06T08:41:53.317Z,6.30
2022-10-06T08:46:01.862Z,8.38
2022-10-06T08:50:13.134Z,7.85
2022-10-06T08:54:25.551Z,8.60
2022-10-06T08:58:44.862Z,8.45
2022-10-06T09:02:51.056Z,9.15
2022-10-06T09:07:00.436Z,8.50
2022-10-06T09:11:22.541Z,9.23
2022-10-06T09:16:07.755Z,10.07
2022-10-06T09:20:28.811Z,10.93
2022-10-06T09:24:43.582Z,11.00
2022-10-06T09:28:51.411Z,11.13
2022-10-06T09:33:05.964Z,9.95
2022-10-06T09:37:12.811Z,11.25
2022-10-06T09:41:16.553Z,10.68
2022-10-06T09:45:25.973Z,10.55
2022-10-06T09:49:31.704Z,8.35
2022-10-06T09:53:37.697Z,9.38
2022-10-06T09:57:50.991Z,8.00
2022-10-06T10:01:55.573Z,9.85
2022-10-06T10:05:59.992Z,8.85
2022-10-06T10:10:25.345Z,8.63
2022-10-06T10:14:37.229Z,8.83
2022-10-06T10:18:46.953Z,8.13
2022-10-06T10:22:50.382Z,8.30
2022-10-06T10:26:57.134Z,6.80
2022-10-06T10:31:48.477Z,6.75
2022-10-06T10:35:56.072Z,5.25
2022-10-06T10:40:29.975Z,5.72
2022-10-06T10:44:42.057Z,4.72
2022-10-06T10:48:51.662Z,3.60
2022-10-06T10:57:35.337Z,3.92
2022-10-06T11:01:47.185Z,4.18
2022-10-06T11:06:24.932Z,4.22
2022-10-06T11:10:43.458Z,3.80
2022-10-06T11:14:54.398Z,3.17
2022-10-06T11:19:15.506Z,3.08
2022-10-06T11:23:36.486Z,2.75
2022-10-06T11:28:04.503Z,1.83
2022-10-06T11:32:13.199Z,2.25
2022-10-06T11:36:28.127Z,1.60
2022-10-06T11:40:50.762Z,1.93
2022-10-06T11:45:13.049Z,2.03
2022-10-06T11:49:28.688Z,1.77
2022-10-06T11:53:39.086Z,1.50
2022-10-06T11:58:05.368Z,1.92
2022-10-06T12:02:30.950Z,1.70
2022-10-06T12:06:46.759Z,2.13
2022-10-06T12:10:50.728Z,1.83
2022-10-06T12:19:53.493Z,1.90
2022-10-06T12:24:19.385Z,2.10
2022-10-06T12:28:49.352Z,2.00
2022-10-06T12:32:53.819Z,1.98
2022-10-06T12:37:33.760Z,2.20
2022-10-06T12:42:21.656Z,2.00
2022-10-06T12:46:53.230Z,1.83
2022-10-06T12:51:31.119Z,1.52
2022-10-06T12:55:52.336Z,1.80
2022-10-06T12:59:55.541Z,1.33
2022-10-06T13:03:58.307Z,1.30
2022-10-06T13:08:07.470Z,1.45
2022-10-06T13:12:19.856Z,1.50
2022-10-06T13:16:37.003Z,1.38
2022-10-06T13:20:42.097Z,1.00
2022-10-06T13:24:44.881Z,2.58
2022-10-06T13:28:53.297Z,0.90
2022-10-06T13:32:57.088Z,0.90
2022-10-06T13:37:01.405Z,1.00
2022-10-06T13:41:25.860Z,1.80
2022-10-06T13:45:29.140Z,1.30
2022-10-06T13:49:57.747Z,1.40
2022-10-06T13:54:21.754Z,1.20
2022-10-06T13:58:33.257Z,1.13
2022-10-06T14:02:40.040Z,1.33
2022-10-06T14:06:56.764Z,1.20
2022-10-06T14:11:08.453Z,1.00
2022-10-06T14:15:23.022Z,1.45
2022-10-06T14:19:52.119Z,1.50
2022-10-06T14:23:59.310Z,1.48
2022-10-06T14:28:07.737Z,1.30
2022-10-06T14:32:27.705Z,1.50
2022-10-06T14:36:41.299Z,1.20
2022-10-06T14:40:57.931Z,1.20
2022-10-06T14:49:07.651Z,1.70
2022-10-06T14:53:18.061Z,1.67
2022-10-06T14:57:25.667Z,1.40
2022-10-06T15:01:29.252Z,1.83
2022-10-06T15:05:32.148Z,1.77
2022-10-06T15:09:35.799Z,1.70
2022-10-06T15:13:40.417Z,4.10
2022-10-06T15:17:43.987Z,19.08
2022-10-06T15:21:51.914Z,7.03
2022-10-06T15:26:24.295Z,3.08
2022-10-06T15:30:41.968Z,2.28
2022-10-06T15:34:45.001Z,2.35
2022-10-06T15:38:48.392Z,1.98
2022-10-06T15:42:52.921Z,1.80
2022-10-06T15:46:56.738Z,1.60
2022-10-06T15:50:59.657Z,1.88
2022-10-06T15:55:03.440Z,1.98
2022-10-06T15:59:07.465Z,2.30
2022-10-06T16:03:24.628Z,1.67
2022-10-06T16:07:28.770Z,1.50
2022-10-06T16:11:31.499Z,1.77
2022-10-06T16:15:34.409Z,2.20
2022-10-06T16:19:38.626Z,1.55
2022-10-06T16:23:41.455Z,1.60
2022-10-06T16:27:44.289Z,1.38
2022-10-06T16:31:48.260Z,1.75
2022-10-06T16:35:55.958Z,1.60
2022-10-06T16:39:58.896Z,1.40
2022-10-06T16:44:01.781Z,1.55
2022-10-06T16:48:04.948Z,1.30
2022-10-06T16:52:07.809Z,1.20
2022-10-06T16:56:21.223Z,1.45
2022-10-06T17:00:25.869Z,1.40
2022-10-06T17:04:28.940Z,1.55
2022-10-06T17:08:32.169Z,1.52
2022-10-06T17:12:35.053Z,1.80
2022-10-06T17:16:41.340Z,2.20
2022-10-06T17:20:54.167Z,2.22
2022-10-06T17:24:57.149Z,2.10
2022-10-06T17:29:01.760Z,1.80
2022-10-06T17:33:04.801Z,2.40
2022-10-06T17:37:07.627Z,2.40
2022-10-06T17:41:25.576Z,2.25
2022-10-06T17:45:28.745Z,4.00
2022-10-06T17:49:34.714Z,3.95
2022-10-06T17:53:46.466Z,4.07
2022-10-06T17:57:49.256Z,5.25
2022-10-06T18:01:56.301Z,5.70
2022-10-06T18:06:00.559Z,5.32
2022-10-06T18:10:22.408Z,4.80
2022-10-06T18:14:27.378Z,5.93
2022-10-06T18:18:31.285Z,3.90
2022-10-06T18:22:34.185Z,4.10
2022-10-06T18:26:38.612Z,4.03
2022-10-06T18:30:41.531Z,4.45
2022-10-06T18:39:08.440Z,4.40
2022-10-06T18:43:11.383Z,4.20
2022-10-06T18:47:32.630Z,4.50
2022-10-06T18:51:38.536Z,4.38
2022-10-06T18:55:41.353Z,4.53
2022-10-06T18:59:44.746Z,4.38
2022-10-06T19:03:47.699Z,5.05
2022-10-06T19:07:53.106Z,5.47
2022-10-06T19:11:57.922Z,5.40
2022-10-06T19:16:02.142Z,5.30
2022-10-06T19:20:05.672Z,5.70
2022-10-06T19:24:11.727Z,5.40
2022-10-06T19:28:14.813Z,5.45
2022-10-06T19:32:21.616Z,5.55
2022-10-06T19:36:25.697Z,5.57
2022-10-06T19:40:28.628Z,4.90
2022-10-06T19:44:31.513Z,5.20
2022-10-06T19:48:34.594Z,5.30
2022-10-06T19:52:37.748Z,6.22
2022-10-06T19:56:42.122Z,5.40
2022-10-06T20:00:45.020Z,5.38
2022-10-06T20:04:48.122Z,5.60
2022-10-06T20:08:53.095Z,5.50
2022-10-06T20:12:58.640Z,5.47
2022-10-06T20:17:02.759Z,5.25
2022-10-06T20:21:07.512Z,5.50
2022-10-06T20:25:10.425Z,5.70
2022-10-06T20:29:15.439Z,5.40
2022-10-06T20:33:18.348Z,5.50
2022-10-06T20:37:21.203Z,5.30
2022-10-06T20:41:24.056Z,5.65
2022-10-06T20:45:26.860Z,5.53
2022-10-06T20:49:29.605Z,5.00
2022-10-06T20:53:32.453Z,6.03
2022-10-06T20:57:35.213Z,6.75
2022-10-06T21:01:40.252Z,7.38
2022-10-06T21:05:51.283Z,7.70
2022-10-06T21:09:55.189Z,7.38
2022-10-06T21:13:58.419Z,7.78
2022-10-06T21:18:03.758Z,7.10
2022-10-06T21:22:06.613Z,6.97
2022-10-06T21:26:12.514Z,7.35
2022-10-06T21:30:15.268Z,6.80
2022-10-06T21:34:18.284Z,5.95
2022-10-06T21:38:21.403Z,5.95
2022-10-06T21:42:24.152Z,6.15
2022-10-06T21:46:30.482Z,5.50
2022-10-06T21:50:33.379Z,5.80
2022-10-06T21:54:38.127Z,5.60
2022-10-06T21:58:40.945Z,6.10
2022-10-06T22:02:43.795Z,5.32
2022-10-06T22:06:50.190Z,5.05
2022-10-06T22:10:52.959Z,5.35
2022-10-06T22:14:59.089Z,4.93
2022-10-06T22:19:03.936Z,4.85
2022-10-06T22:23:06.748Z,4.18
2022-10-06T22:27:09.467Z,4.75
2022-10-06T22:31:13.404Z,4.93
2022-10-06T22:35:17.431Z,4.85
2022-10-06T22:39:20.312Z,5.13
2022-10-06T22:43:23.075Z,5.30
2022-10-06T22:47:25.864Z,4.72
2022-10-06T22:51:28.742Z,4.20
2022-10-06T22:55:31.361Z,5.05
2022-10-06T22:59:34.231Z,4.63
2022-10-06T23:03:37.085Z,4.43
2022-10-06T23:07:39.892Z,5.10
2022-10-06T23:11:42.879Z,4.97
2022-10-06T23:15:45.765Z,5.05
2022-10-06T23:19:48.446Z,4.93
2022-10-06T23:23:53.595Z,5.38
2022-10-06T23:27:56.701Z,4.57
2022-10-06T23:31:59.845Z,4.63
2022-10-06T23:36:05.854Z,4.80
2022-10-06T23:40:09.118Z,4.97
2022-10-06T23:44:11.907Z,4.78
2022-10-06T23:48:15.321Z,4.93
2022-10-06T23:52:18.415Z,3.95
2022-10-06T23:56:21.783Z,5.13
